createdAt,value
2019-06-07T00:00:29.676Z,95141.39
2019-06-07T00:02:43.827Z,95146.05
2019-06-07T00:05:17.188Z,95143.09
2019-06-07T00:07:43.018Z,95149.56
2019-06-07T00:10:31.242Z,95149.60
2019-06-07T00:12:42.628Z,95153.60
2019-06-07T00:15:18.136Z,95163.47
2019-06-07T00:17:42.007Z,95168.06
2019-06-07T00:20:15.586Z,95161.14
2019-06-07T00:22:41.985Z,95165.05
2019-06-07T00:25:15.111Z,95168.10
2019-06-07T00:27:41.343Z,95171.47
2019-06-07T00:32:41.683Z,95179.44
2019-06-07T00:35:11.936Z,95173.52
2019-06-07T00:37:41.337Z,95175.27
2019-06-07T00:40:16.167Z,95170.16
2019-06-07T00:42:40.953Z,95170.16
2019-06-07T00:45:11.187Z,95166.56
2019-06-07T00:47:40.661Z,95160.76
2019-06-07T00:50:11.139Z,95166.56
2019-06-07T00:53:13.930Z,95172.43
2019-06-07T00:55:15.233Z,95176.98
2019-06-07T00:57:42.793Z,95169.60
2019-06-07T01:00:14.777Z,95170.78
2019-06-07T01:02:43.045Z,95165.59
2019-06-07T01:05:15.935Z,95158.21
2019-06-07T01:07:42.424Z,95159.02
2019-06-07T01:10:21.160Z,95156.33
2019-06-07T01:12:46.362Z,95153.71
2019-06-07T01:15:19.517Z,95144.24
2019-06-07T01:18:32.623Z,95146.82
2019-06-07T01:20:21.178Z,95149.39
2019-06-07T01:22:48.288Z,95146.40
2019-06-07T01:25:18.243Z,95148.07
2019-06-07T01:27:47.457Z,95147.69
2019-06-07T01:30:24.162Z,95152.19
2019-06-07T01:32:50.959Z,95157.48
2019-06-07T01:35:23.458Z,95156.28
2019-06-07T01:37:52.403Z,95157.91
2019-06-07T01:40:27.797Z,95152.68
2019-06-07T01:42:55.000Z,95145.30
2019-06-07T01:45:24.342Z,95151.70
2019-06-07T01:47:53.834Z,95153.37
2019-06-07T01:50:24.810Z,95155.49
2019-06-07T01:52:52.800Z,95155.04
2019-06-07T01:55:23.618Z,95153.82
2019-06-07T01:57:51.691Z,95163.36
2019-06-07T02:00:22.095Z,95171.99
2019-06-07T02:02:50.928Z,95174.57
2019-06-07T02:05:21.565Z,95173.66
2019-06-07T02:07:50.131Z,95180.94
2019-06-07T02:10:25.741Z,95180.45
2019-06-07T02:12:52.310Z,95178.73
2019-06-07T02:15:23.099Z,95177.34
2019-06-07T02:17:51.398Z,95180.75
2019-06-07T02:20:22.985Z,95187.64
2019-06-07T02:22:51.178Z,95181.59
2019-06-07T02:25:43.803Z,95188.93
2019-06-07T02:27:50.080Z,95188.48
2019-06-07T02:32:50.893Z,95197.38
2019-06-07T02:35:22.557Z,95196.52
2019-06-07T02:37:50.163Z,95194.28
2019-06-07T02:40:19.094Z,95197.30
2019-06-07T02:42:47.724Z,95198.98
2019-06-07T02:45:17.027Z,95202.39
2019-06-07T02:47:46.856Z,95213.98
2019-06-07T02:50:16.596Z,95210.56
2019-06-07T02:52:45.202Z,95211.41
2019-06-07T02:55:14.223Z,95203.67
2019-06-07T02:57:43.343Z,95208.83
2019-06-07T03:00:41.382Z,95205.03
2019-06-07T03:02:47.847Z,95207.99
2019-06-07T03:05:16.465Z,95212.66
2019-06-07T03:07:47.213Z,95213.94
2019-06-07T03:10:16.158Z,95210.42
2019-06-07T03:12:47.732Z,95209.63
2019-06-07T03:15:33.025Z,95213.11
2019-06-07T03:18:06.807Z,95211.78
2019-06-07T03:20:37.206Z,95214.25
2019-06-07T03:23:06.937Z,95213.75
2019-06-07T03:25:39.169Z,95221.17
2019-06-07T03:28:07.995Z,95222.23
2019-06-07T03:30:48.027Z,95220.48
2019-06-07T03:33:06.969Z,95219.92
2019-06-07T03:35:37.469Z,95218.11
2019-06-07T03:38:05.937Z,95218.91
2019-06-07T03:40:39.575Z,95218.07
2019-06-07T03:43:04.754Z,95215.05
2019-06-07T03:45:36.026Z,95213.27
2019-06-07T03:48:03.604Z,95215.00
2019-06-07T03:50:36.098Z,95208.00
2019-06-07T03:53:02.792Z,95202.73
2019-06-07T03:55:37.753Z,95200.11
2019-06-07T03:58:31.545Z,95197.50
2019-06-07T04:00:36.661Z,95205.99
2019-06-07T04:03:03.775Z,95210.80
2019-06-07T04:05:38.145Z,95207.35
2019-06-07T04:08:02.694Z,95212.84
2019-06-07T04:10:52.029Z,95212.28
2019-06-07T04:13:01.464Z,95214.37
2019-06-07T04:15:30.840Z,95213.49
2019-06-07T04:18:02.202Z,95217.70
2019-06-07T04:20:33.820Z,95223.65
2019-06-07T04:23:00.665Z,95232.55
2019-06-07T04:25:33.894Z,95235.55
2019-06-07T04:27:59.600Z,95240.28
2019-06-07T04:30:42.409Z,95244.11
2019-06-07T04:33:12.482Z,95253.63
2019-06-07T04:35:43.147Z,95248.92
2019-06-07T04:38:14.102Z,95254.12
2019-06-07T04:40:47.056Z,95262.64
2019-06-07T04:43:16.013Z,95263.94
2019-06-07T04:45:50.670Z,95266.66
2019-06-07T04:48:14.843Z,95261.66
2019-06-07T04:50:44.062Z,95261.80
2019-06-07T04:53:12.886Z,95260.09
2019-06-07T04:55:42.865Z,95267.83
2019-06-07T04:58:11.474Z,95271.69
2019-06-07T05:00:55.625Z,95278.66
2019-06-07T05:03:12.012Z,95286.39
2019-06-07T05:05:43.516Z,95286.81
2019-06-07T05:08:26.988Z,95286.42
2019-06-07T05:10:43.809Z,95287.67
2019-06-07T05:13:11.522Z,95282.31
2019-06-07T05:15:42.207Z,95282.66
2019-06-07T05:18:10.411Z,95280.08
2019-06-07T05:20:41.532Z,95286.03
2019-06-07T05:23:09.383Z,95282.02
2019-06-07T05:25:39.288Z,95290.84
2019-06-07T05:28:08.937Z,95282.92
2019-06-07T05:33:12.232Z,95286.00
2019-06-07T05:35:43.316Z,95285.54
2019-06-07T05:38:11.382Z,95283.02
2019-06-07T05:40:46.115Z,95289.29
2019-06-07T05:43:24.078Z,95287.03
2019-06-07T05:45:52.683Z,95287.82
2019-06-07T05:48:21.417Z,95284.47
2019-06-07T05:50:56.787Z,95282.53
2019-06-07T05:53:20.471Z,95285.53
2019-06-07T05:55:49.037Z,95278.39
2019-06-07T05:58:17.659Z,95277.63
2019-06-07T06:00:47.906Z,95274.20
2019-06-07T06:03:16.952Z,95271.80
2019-06-07T06:05:53.849Z,95268.03
2019-06-07T06:08:15.950Z,95267.30
2019-06-07T06:10:48.320Z,95264.97
2019-06-07T06:13:14.976Z,95266.33
2019-06-07T06:15:55.946Z,95269.61
2019-06-07T06:18:14.009Z,95267.64
2019-06-07T06:21:08.538Z,95266.66
2019-06-07T06:23:13.066Z,95264.66
2019-06-07T06:25:50.163Z,95267.10
2019-06-07T06:28:13.194Z,95269.64
2019-06-07T06:30:46.027Z,95271.59
2019-06-07T06:33:30.580Z,95267.27
2019-06-07T06:35:48.434Z,95263.41
2019-06-07T06:38:13.828Z,95269.20
2019-06-07T06:40:46.539Z,95271.44
2019-06-07T06:43:12.857Z,95271.41
2019-06-07T06:45:42.825Z,95273.21
2019-06-07T06:48:11.865Z,95278.27
2019-06-07T06:50:41.109Z,95274.41
2019-06-07T06:53:09.862Z,95274.34
2019-06-07T06:55:39.093Z,95273.59
2019-06-07T06:58:07.872Z,95272.20
2019-06-07T07:01:04.349Z,95270.17
2019-06-07T07:03:56.063Z,95273.13
2019-06-07T07:05:54.532Z,95264.03
2019-06-07T07:08:22.695Z,95266.61
2019-06-07T07:10:53.295Z,95264.08
2019-06-07T07:13:22.954Z,95265.13
2019-06-07T07:15:57.630Z,95262.15
2019-06-07T07:18:21.952Z,95267.24
2019-06-07T07:20:56.647Z,95272.86
2019-06-07T07:23:21.100Z,95271.58
2019-06-07T07:25:55.530Z,95269.02
2019-06-07T07:28:20.098Z,95267.36
2019-06-07T07:30:55.272Z,95267.98
2019-06-07T07:33:23.213Z,95271.19
2019-06-07T07:36:15.280Z,95276.83
2019-06-07T07:38:24.135Z,95274.50
2019-06-07T07:41:04.845Z,95275.36
2019-06-07T07:43:24.542Z,95272.64
2019-06-07T07:45:59.367Z,95268.20
2019-06-07T07:48:23.509Z,95270.19
2019-06-07T07:50:56.951Z,95264.38
2019-06-07T07:53:22.424Z,95262.94
2019-06-07T07:55:54.969Z,95267.84
2019-06-07T07:58:21.608Z,95263.36
2019-06-07T08:00:59.069Z,95260.41
2019-06-07T08:03:20.834Z,95261.88
2019-06-07T08:05:52.044Z,95259.05
2019-06-07T08:08:20.561Z,95264.09
2019-06-07T08:10:52.605Z,95259.88
2019-06-07T08:13:25.710Z,95258.71
2019-06-07T08:15:54.432Z,95257.73
2019-06-07T08:18:20.968Z,95255.44
2019-06-07T08:21:08.603Z,95252.14
2019-06-07T08:23:20.619Z,95260.25
2019-06-07T08:25:49.290Z,95262.87
2019-06-07T08:28:17.953Z,95257.40
2019-06-07T08:30:53.225Z,95259.39
2019-06-07T08:33:27.258Z,95261.30
2019-06-07T08:38:29.280Z,95264.62
2019-06-07T08:40:56.780Z,95260.50
2019-06-07T08:43:23.274Z,95271.12
2019-06-07T08:45:58.460Z,95266.08
2019-06-07T08:48:28.089Z,95265.21
2019-06-07T08:50:56.972Z,95264.88
2019-06-07T08:53:22.985Z,95270.01
2019-06-07T08:55:58.213Z,95274.20
2019-06-07T08:58:21.882Z,95279.20
2019-06-07T09:00:51.657Z,95278.50
2019-06-07T09:03:20.892Z,95275.20
2019-06-07T09:05:49.517Z,95278.05
2019-06-07T09:08:29.959Z,95270.39
2019-06-07T09:10:48.393Z,95272.83
2019-06-07T09:13:16.948Z,95269.05
2019-06-07T09:15:45.501Z,95272.30
2019-06-07T09:20:49.523Z,95271.12
2019-06-07T09:23:18.620Z,95270.21
2019-06-07T09:25:57.614Z,95265.15
2019-06-07T09:28:20.391Z,95269.91
2019-06-07T09:30:49.419Z,95259.86
2019-06-07T09:33:18.054Z,95263.74
2019-06-07T09:35:46.710Z,95259.20
2019-06-07T09:38:25.025Z,95263.67
2019-06-07T09:40:46.138Z,95258.46
2019-06-07T09:45:45.109Z,95261.80
2019-06-07T09:48:23.908Z,95258.47
2019-06-07T09:50:44.053Z,95255.95
2019-06-07T09:53:21.579Z,95254.33
2019-06-07T09:55:43.126Z,95261.47
2019-06-07T09:58:50.535Z,95260.36
2019-06-07T10:00:42.974Z,95260.75
2019-06-07T10:03:20.083Z,95259.36
2019-06-07T10:05:42.240Z,95256.14
2019-06-07T10:08:40.991Z,95253.02
2019-06-07T10:10:42.978Z,95251.50
2019-06-07T10:13:11.445Z,95255.14
2019-06-07T10:15:40.264Z,95252.38
2019-06-07T10:18:09.307Z,95254.71
2019-06-07T10:20:38.408Z,95248.45
2019-06-07T10:23:07.985Z,95250.56
2019-06-07T10:25:36.759Z,95251.31
2019-06-07T10:28:06.162Z,95248.76
2019-06-07T10:30:35.123Z,95251.46
2019-06-07T10:33:04.840Z,95257.57
2019-06-07T10:35:34.349Z,95261.48
2019-06-07T10:38:02.830Z,95259.39
2019-06-07T10:40:31.472Z,95258.57
2019-06-07T10:43:01.174Z,95259.84
2019-06-07T10:45:29.946Z,95256.11
2019-06-07T10:47:58.665Z,95251.23
2019-06-07T10:50:28.227Z,95249.58
2019-06-07T10:52:57.027Z,95257.19
2019-06-07T10:55:25.628Z,95255.64
2019-06-07T10:57:54.290Z,95256.27
2019-06-07T11:00:24.945Z,95253.80
2019-06-07T11:02:55.278Z,95262.14
2019-06-07T11:05:24.058Z,95257.14
2019-06-07T11:07:52.683Z,95250.25
2019-06-07T11:10:21.346Z,95263.32
2019-06-07T11:12:49.960Z,95258.08
2019-06-07T11:15:20.229Z,95260.81
2019-06-07T11:17:48.817Z,95254.84
2019-06-07T11:20:18.767Z,95255.25
2019-06-07T11:22:47.583Z,95257.20
2019-06-07T11:25:16.942Z,95254.66
2019-06-07T11:27:45.551Z,95255.87
2019-06-07T11:30:17.141Z,95254.47
2019-06-07T11:32:45.685Z,95264.59
2019-06-07T11:35:16.045Z,95267.70
2019-06-07T11:37:46.240Z,95268.77
2019-06-07T11:40:31.587Z,95268.41
2019-06-07T11:42:45.494Z,95277.30
2019-06-07T11:45:15.475Z,95276.55
2019-06-07T11:47:45.008Z,95277.48
2019-06-07T11:50:15.789Z,95277.67
2019-06-07T11:52:46.477Z,95275.93
2019-06-07T11:55:15.928Z,95279.89
2019-06-07T11:57:44.648Z,95283.56
2019-06-07T12:00:16.429Z,95284.47
2019-06-07T12:02:46.192Z,95285.45
2019-06-07T12:05:18.428Z,95287.88
2019-06-07T12:07:46.350Z,95289.84
2019-06-07T12:10:19.156Z,95292.81
2019-06-07T12:12:46.301Z,95294.47
2019-06-07T12:15:17.322Z,95295.06
2019-06-07T12:17:46.314Z,95289.93
2019-06-07T12:20:17.312Z,95291.31
2019-06-07T12:22:46.071Z,95295.69
2019-06-07T12:25:20.729Z,95292.89
2019-06-07T12:27:45.079Z,95293.15
2019-06-07T12:30:22.497Z,95288.38
2019-06-07T12:32:44.668Z,95287.53
2019-06-07T12:35:13.691Z,95291.90
2019-06-07T12:37:44.674Z,95289.47
2019-06-07T12:40:22.399Z,95279.92
2019-06-07T12:42:43.321Z,95285.61
2019-06-07T12:45:32.381Z,95282.73
2019-06-07T12:47:45.542Z,95281.34
2019-06-07T12:50:15.394Z,95275.53
2019-06-07T12:52:44.100Z,95274.13
2019-06-07T12:55:14.028Z,95275.35
2019-06-07T12:57:43.310Z,95271.97
2019-06-07T13:00:14.097Z,95274.28
2019-06-07T13:02:43.170Z,95269.89
2019-06-07T13:05:13.394Z,95273.72
2019-06-07T13:07:42.022Z,95266.23
2019-06-07T13:10:11.083Z,95271.88
2019-06-07T13:12:39.736Z,95268.79
2019-06-07T13:15:09.362Z,95266.92
2019-06-07T13:17:38.337Z,95267.57
2019-06-07T13:20:08.014Z,95271.27
2019-06-07T13:22:37.314Z,95271.45
2019-06-07T13:25:07.852Z,95271.80
2019-06-07T13:27:36.508Z,95276.11
2019-06-07T13:30:10.421Z,95275.16
2019-06-07T13:32:39.150Z,95272.45
2019-06-07T13:35:08.319Z,95276.98
2019-06-07T13:37:36.953Z,95270.19
2019-06-07T13:40:09.081Z,95277.46
2019-06-07T13:42:37.925Z,95270.02
2019-06-07T13:45:08.880Z,95271.05
2019-06-07T13:47:37.574Z,95259.56
2019-06-07T13:50:07.579Z,95253.66
2019-06-07T13:52:37.480Z,95261.88
2019-06-07T13:55:07.049Z,95262.22
2019-06-07T13:57:36.117Z,95261.48
2019-06-07T14:00:12.411Z,95266.36
2019-06-07T14:02:41.162Z,95270.11
2019-06-07T14:05:10.377Z,95270.14
2019-06-07T14:07:38.924Z,95271.37
2019-06-07T14:10:11.522Z,95269.91
2019-06-07T14:12:40.659Z,95266.66
2019-06-07T14:15:10.080Z,95278.94
2019-06-07T14:17:39.027Z,95276.98
2019-06-07T14:20:09.661Z,95272.71
2019-06-07T14:22:39.018Z,95272.14
2019-06-07T14:25:09.885Z,95268.97
2019-06-07T14:27:38.507Z,95269.71
2019-06-07T14:30:12.162Z,95278.19
2019-06-07T14:32:40.814Z,95268.97
2019-06-07T14:35:11.236Z,95267.19
2019-06-07T14:37:39.854Z,95268.40
2019-06-07T14:40:10.073Z,95270.92
2019-06-07T14:42:38.825Z,95270.45
2019-06-07T14:45:08.765Z,95264.75
2019-06-07T14:47:37.322Z,95262.13
2019-06-07T14:50:12.374Z,95265.22
2019-06-07T14:52:40.955Z,95264.27
2019-06-07T14:55:10.486Z,95263.80
2019-06-07T14:57:39.404Z,95262.05
2019-06-07T15:00:13.204Z,95266.79
2019-06-07T15:02:41.821Z,95262.40
2019-06-07T15:05:11.372Z,95257.27
2019-06-07T15:07:40.767Z,95267.36
2019-06-07T15:10:10.615Z,95267.09
2019-06-07T15:12:39.941Z,95272.88
2019-06-07T15:15:10.613Z,95280.80
2019-06-07T15:17:39.445Z,95276.23
2019-06-07T15:20:09.580Z,95274.66
2019-06-07T15:22:38.905Z,95277.45
2019-06-07T15:25:08.592Z,95282.80
2019-06-07T15:27:37.673Z,95283.23
2019-06-07T15:30:11.557Z,95281.11
2019-06-07T15:32:40.521Z,95279.80
2019-06-07T15:35:09.651Z,95279.80
2019-06-07T15:37:39.299Z,95277.45
2019-06-07T15:40:09.085Z,95279.03
2019-06-07T15:42:51.332Z,95272.89
2019-06-07T15:45:09.915Z,95269.45
2019-06-07T15:47:40.372Z,95270.16
2019-06-07T15:50:09.813Z,95263.95
2019-06-07T15:52:40.489Z,95267.30
2019-06-07T15:55:10.425Z,95272.31
2019-06-07T15:57:39.716Z,95275.10
2019-06-07T16:00:14.117Z,95274.06
2019-06-07T16:02:42.825Z,95272.28
2019-06-07T16:05:11.724Z,95265.84
2019-06-07T16:07:40.745Z,95270.06
2019-06-07T16:10:10.894Z,95282.37
2019-06-07T16:12:40.788Z,95278.31
2019-06-07T16:15:11.764Z,95277.84
2019-06-07T16:17:42.017Z,95278.97
2019-06-07T16:20:11.049Z,95282.62
2019-06-07T16:22:39.834Z,95279.83
2019-06-07T16:25:09.511Z,95280.12
2019-06-07T16:27:38.692Z,95277.81
2019-06-07T16:30:09.555Z,95277.63
2019-06-07T16:32:39.352Z,95282.20
2019-06-07T16:35:09.553Z,95281.57
2019-06-07T16:37:40.721Z,95281.78
2019-06-07T16:40:12.465Z,95281.13
2019-06-07T16:42:42.751Z,95287.73
2019-06-07T16:45:12.425Z,95282.71
2019-06-07T16:47:43.745Z,95270.31
2019-06-07T16:50:13.308Z,95270.88
2019-06-07T16:52:42.129Z,95271.16
2019-06-07T16:55:13.076Z,95274.80
2019-06-07T16:57:42.902Z,95278.09
2019-06-07T17:00:13.887Z,95279.56
2019-06-07T17:02:42.453Z,95281.16
2019-06-07T17:05:14.422Z,95285.27
2019-06-07T17:07:44.679Z,95282.91
2019-06-07T17:10:14.483Z,95289.52
2019-06-07T17:12:44.676Z,95295.48
2019-06-07T17:15:15.806Z,95299.88
2019-06-07T17:17:45.338Z,95303.20
2019-06-07T17:20:14.629Z,95297.72
2019-06-07T17:22:43.993Z,95297.45
2019-06-07T17:25:14.503Z,95300.61
2019-06-07T17:27:43.902Z,95311.98
2019-06-07T17:30:13.999Z,95313.75
2019-06-07T17:32:50.635Z,95310.75
2019-06-07T17:35:13.769Z,95319.33
2019-06-07T17:37:44.289Z,95315.05
2019-06-07T17:40:13.418Z,95315.13
2019-06-07T17:42:42.749Z,95319.24
2019-06-07T17:45:32.351Z,95315.41
2019-06-07T17:48:00.907Z,95311.22
2019-06-07T17:50:29.515Z,95313.64
2019-06-07T17:52:58.138Z,95309.72
2019-06-07T17:55:26.823Z,95310.70
2019-06-07T17:57:55.382Z,95307.34
2019-06-07T18:00:45.062Z,95308.34
2019-06-07T18:03:15.153Z,95309.32
2019-06-07T18:05:45.127Z,95295.33
2019-06-07T18:08:14.563Z,95306.27
2019-06-07T18:10:47.836Z,95306.98
2019-06-07T18:13:16.525Z,95299.84
2019-06-07T18:15:51.722Z,95306.94
2019-06-07T18:18:17.232Z,95303.54
2019-06-07T18:20:47.217Z,95313.63
2019-06-07T18:23:16.194Z,95312.32
2019-06-07T18:25:46.557Z,95314.66
2019-06-07T18:28:15.175Z,95316.38
2019-06-07T18:30:43.797Z,95318.25
2019-06-07T18:33:12.514Z,95320.50
2019-06-07T18:35:41.172Z,95323.95
2019-06-07T18:38:10.907Z,95328.39
2019-06-07T18:40:40.639Z,95333.83
2019-06-07T18:43:09.252Z,95333.41
2019-06-07T18:45:37.838Z,95336.80
2019-06-07T18:48:06.905Z,95343.16
2019-06-07T18:50:36.410Z,95341.70
2019-06-07T18:53:05.495Z,95346.66
2019-06-07T18:55:34.007Z,95345.69
2019-06-07T18:58:02.624Z,95345.52
2019-06-07T19:00:32.054Z,95350.27
2019-06-07T19:03:00.666Z,95351.79
2019-06-07T19:05:29.351Z,95349.09
2019-06-07T19:07:59.856Z,95353.14
2019-06-07T19:10:28.436Z,95350.77
2019-06-07T19:12:57.430Z,95351.21
2019-06-07T19:15:27.348Z,95351.49
2019-06-07T19:17:56.243Z,95353.01
2019-06-07T19:20:25.664Z,95353.23
2019-06-07T19:22:54.575Z,95350.08
2019-06-07T19:25:23.186Z,95359.96
2019-06-07T19:27:52.682Z,95360.70
2019-06-07T19:30:22.822Z,95365.33
2019-06-07T19:32:52.973Z,95366.52
2019-06-07T19:35:22.239Z,95370.73
2019-06-07T19:37:51.791Z,95375.05
2019-06-07T19:40:21.573Z,95372.75
2019-06-07T19:42:50.229Z,95374.22
2019-06-07T19:45:34.735Z,95375.61
2019-06-07T19:47:49.966Z,95373.99
2019-06-07T19:50:20.040Z,95374.25
2019-06-07T19:52:50.030Z,95370.62
2019-06-07T19:55:19.191Z,95370.31
2019-06-07T19:57:50.055Z,95367.55
2019-06-07T20:00:18.752Z,95369.42
2019-06-07T20:02:47.290Z,95368.18
2019-06-07T20:05:16.699Z,95374.48
2019-06-07T20:07:45.315Z,95373.84
2019-06-07T20:10:15.628Z,95378.77
2019-06-07T20:12:44.278Z,95376.71
2019-06-07T20:15:27.846Z,95376.02
2019-06-07T20:17:43.935Z,95380.47
2019-06-07T20:20:14.341Z,95382.48
2019-06-07T20:22:42.992Z,95389.03
2019-06-07T20:25:12.304Z,95393.48
2019-06-07T20:27:41.014Z,95391.87
2019-06-07T20:30:11.915Z,95396.83
2019-06-07T20:32:40.517Z,95396.51
2019-06-07T20:35:09.836Z,95397.16
2019-06-07T20:37:38.437Z,95394.25
2019-06-07T20:40:22.775Z,95396.19
2019-06-07T20:42:39.415Z,95394.48
2019-06-07T20:45:09.283Z,95394.53
2019-06-07T20:47:37.900Z,95392.64
2019-06-07T20:50:08.691Z,95399.25
2019-06-07T20:52:37.698Z,95399.43
2019-06-07T20:55:09.123Z,95396.52
2019-06-07T20:57:38.143Z,95404.33
2019-06-07T21:00:16.344Z,95404.59
2019-06-07T21:02:39.636Z,95404.23
2019-06-07T21:05:09.812Z,95408.75
2019-06-07T21:07:38.824Z,95411.52
2019-06-07T21:10:14.572Z,95402.31
2019-06-07T21:12:46.077Z,95408.00
2019-06-07T21:15:15.136Z,95411.09
2019-06-07T21:17:43.766Z,95399.63
2019-06-07T21:20:14.587Z,95403.19
2019-06-07T21:22:43.291Z,95401.23
2019-06-07T21:25:12.467Z,95401.29
2019-06-07T21:27:41.104Z,95401.04
2019-06-07T21:30:11.559Z,95396.09
2019-06-07T21:32:40.794Z,95398.84
2019-06-07T21:35:10.529Z,95401.98
2019-06-07T21:37:39.149Z,95403.02
2019-06-07T21:40:08.428Z,95409.48
2019-06-07T21:42:37.445Z,95403.90
2019-06-07T21:45:09.834Z,95403.69
2019-06-07T21:47:39.056Z,95400.81
2019-06-07T21:50:08.837Z,95402.61
2019-06-07T21:52:37.890Z,95397.95
2019-06-07T21:55:09.080Z,95391.66
2019-06-07T21:57:39.693Z,95397.78
2019-06-07T22:00:13.504Z,95397.45
2019-06-07T22:02:42.614Z,95399.28
2019-06-07T22:05:11.872Z,95400.23
2019-06-07T22:07:40.536Z,95400.36
2019-06-07T22:10:10.100Z,95397.86
2019-06-07T22:12:38.767Z,95393.27
2019-06-07T22:15:24.205Z,95388.98
2019-06-07T22:17:38.817Z,95387.81
2019-06-07T22:20:08.649Z,95390.56
2019-06-07T22:22:37.627Z,95385.44
2019-06-07T22:25:09.019Z,95384.73
2019-06-07T22:27:38.051Z,95387.30
2019-06-07T22:30:08.807Z,95394.19
2019-06-07T22:32:39.230Z,95393.39
2019-06-07T22:35:08.970Z,95394.80
2019-06-07T22:37:37.920Z,95395.30
2019-06-07T22:40:08.657Z,95399.25
2019-06-07T22:42:38.206Z,95393.29
2019-06-07T22:45:08.147Z,95387.00
2019-06-07T22:47:36.970Z,95385.78
2019-06-07T22:50:12.642Z,95385.46
2019-06-07T22:52:41.662Z,95393.28
2019-06-07T22:55:12.103Z,95389.86
2019-06-07T22:57:54.342Z,95387.81
2019-06-07T23:00:23.776Z,95385.35
2019-06-07T23:02:52.567Z,95383.77
2019-06-07T23:05:23.955Z,95387.22
2019-06-07T23:07:52.515Z,95379.44
2019-06-07T23:10:21.119Z,95379.94
2019-06-07T23:12:49.735Z,95385.59
2019-06-07T23:15:20.754Z,95381.00
2019-06-07T23:17:49.461Z,95383.23
2019-06-07T23:20:20.025Z,95383.73
2019-06-07T23:22:49.082Z,95379.94
2019-06-07T23:25:21.866Z,95383.96
2019-06-07T23:27:48.102Z,95379.90
2019-06-07T23:30:18.605Z,95384.34
2019-06-07T23:32:47.483Z,95382.25
2019-06-07T23:35:17.317Z,95383.58
2019-06-07T23:37:46.310Z,95386.65
2019-06-07T23:40:15.690Z,95389.72
2019-06-07T23:42:44.297Z,95385.96
2019-06-07T23:45:13.835Z,95374.39
2019-06-07T23:47:42.677Z,95376.97
2019-06-07T23:50:13.641Z,95379.20
2019-06-07T23:52:42.433Z,95376.52
2019-06-07T23:55:11.908Z,95371.78
2019-06-07T23:57:40.699Z,95375.34
